This is the latest recevied weather packets stored in our database for station/object KI5RAB. If no packets are shown the sender has not sent any weather packets the latest 10 day(s).
| Time | Temp. | Humidity | Pressure | Rain* | Wind** | Luminosity | Snow |
|---|---|---|---|---|---|---|---|
| 1777778228 | 13.89° C | 81% | 1024.8 hPa | 0 mm | - | 0 W/m² | - |
| 1777777927 | 14.44° C | 80% | 1024.8 hPa | 0 mm | - | 0 W/m² | - |
| 1777777622 | 14.44° C | 80% | 1024.8 hPa | 0 mm | - | 0 W/m² | - |
| 1777777319 | 14.44° C | 79% | 1024.6 hPa | 0 mm | - | 0 W/m² | - |
| 1777777016 | 14.44° C | 78% | 1024.6 hPa | 0 mm | - | 0 W/m² | - |
| 1777776714 | 15° C | 77% | 1024.5 hPa | 0 mm | - | 0 W/m² | - |
| 1777776410 | 15° C | 75% | 1024.6 hPa | 0 mm | - | 0 W/m² | - |
| 1777776108 | 15.56° C | 75% | 1024.2 hPa | 0 mm | - | 0 W/m² | - |
| 1777775804 | 15.56° C | 73% | 1024.3 hPa | 0 mm | - | 0 W/m² | - |
| 1777775501 | 16.11° C | 71% | 1024.2 hPa | 0 mm | - | 0 W/m² | - |
| 1777775198 | 16.11° C | 69% | 1024.4 hPa | 0 mm | - | 0 W/m² | - |
| 1777774897 | 16.67° C | 67% | 1024.2 hPa | 0 mm | - | 0 W/m² | - |
| 1777774594 | 16.67° C | 65% | 1024.1 hPa | 0 mm | - | 0 W/m² | - |
| 1777774291 | 17.22° C | 62% | 1023.9 hPa | 0 mm | - | 0 W/m² | - |
| 1777773988 | 17.78° C | 61% | 1023.8 hPa | 0 mm | - | 0 W/m² | - |
| 1777773686 | 18.33° C | 59% | 1023.8 hPa | 0 mm | - | 0 W/m² | - |
| 1777773382 | 18.89° C | 54% | 1023.7 hPa | 0 mm | - | 0 W/m² | - |
| 1777773079 | 19.44° C | 53% | 1023.5 hPa | 0 mm | - | 0 W/m² | - |
| 1777772775 | 20° C | 51% | 1023.4 hPa | 0 mm | - | 0 W/m² | - |
| 1777772473 | 19.44° C | 51% | 1023.6 hPa | 0 mm | - | 0 W/m² | - |
| 1777772170 | 19.44° C | 52% | 1023.6 hPa | 0 mm | - | 0 W/m² | - |
| 1777771868 | 20° C | 51% | 1023.3 hPa | 0 mm | - | 0 W/m² | - |
| 1777771565 | 20.56° C | 48% | 1023.3 hPa | 0 mm | - | 0 W/m² | - |
| 1777771262 | 20.56° C | 47% | 1023.2 hPa | 0 mm | - | 1 W/m² | - |
| 1777770958 | 20.56° C | 46% | 1023.1 hPa | 0 mm | - | 2 W/m² | - |
* Rain latest hour (hover to see other rain measurements)
** Current wind speed in m/s (hover to see current wind gust speed)